Gallix, Canada
Current Conditions -  °F | °C
As of 9:00 AM on Friday 24 Oct 2014 (Local Time) from CYZV Reporting Station
Few Clouds Few Clouds  
Wind Chill: 37°   Ceiling: Unl
Heat Index: 43°   Visibility: 30mi
Dew Point: 21°   Wind: 9mph
Humidity: 42%   Direction: 30°NNE
Pressure: 30"   Gusts: NA
Location:  50.14°N, 66.62°W
Report Text: CYZV 241300Z 03008KT 30SM FEW150 FEW260 06/M06 A3000 RMK AC1CI2 AC TR SLP163
Loading
Personal Weather Stations






























Interactive Weather Map
Tropical Storm Tracking
New forecast layout! Learn more

10-Day Weather Forecast

Advertisements
Track Severe Weather on mobile